sensor_id;sensor_type;location;lat;lon;timestamp;P1;durP1;ratioP1;P2;durP2;ratioP2
15385;SDS011;7791;47.246;9.648;2022-07-09T00:02:24;2.90;;;1.90;;
15385;SDS011;7791;47.246;9.648;2022-07-09T00:04:52;3.40;;;1.90;;
15385;SDS011;7791;47.246;9.648;2022-07-09T00:07:19;2.83;;;2.10;;
15385;SDS011;7791;47.246;9.648;2022-07-09T00:09:47;3.33;;;2.00;;
15385;SDS011;7791;47.246;9.648;2022-07-09T00:12:13;2.77;;;1.70;;
15385;SDS011;7791;47.246;9.648;2022-07-09T00:14:39;4.20;;;2.33;;
15385;SDS011;7791;47.246;9.648;2022-07-09T00:17:05;2.37;;;1.90;;
15385;SDS011;7791;47.246;9.648;2022-07-09T00:19:31;3.87;;;2.00;;
15385;SDS011;7791;47.246;9.648;2022-07-09T00:21:57;3.37;;;2.03;;
15385;SDS011;7791;47.246;9.648;2022-07-09T00:24:25;2.10;;;1.90;;
15385;SDS011;7791;47.246;9.648;2022-07-09T00:26:52;3.70;;;1.93;;
15385;SDS011;7791;47.246;9.648;2022-07-09T00:29:18;6.03;;;1.90;;
15385;SDS011;7791;47.246;9.648;2022-07-09T00:31:44;2.53;;;1.87;;
15385;SDS011;7791;47.246;9.648;2022-07-09T00:34:14;2.80;;;1.70;;
15385;SDS011;7791;47.246;9.648;2022-07-09T00:36:39;2.83;;;2.10;;
15385;SDS011;7791;47.246;9.648;2022-07-09T00:39:05;5.17;;;2.10;;
15385;SDS011;7791;47.246;9.648;2022-07-09T00:41:32;2.33;;;1.80;;
15385;SDS011;7791;47.246;9.648;2022-07-09T00:44:01;4.70;;;2.20;;
15385;SDS011;7791;47.246;9.648;2022-07-09T00:46:27;3.30;;;1.70;;
15385;SDS011;7791;47.246;9.648;2022-07-09T00:48:54;3.87;;;1.90;;
15385;SDS011;7791;47.246;9.648;2022-07-09T00:51:19;3.43;;;2.00;;
15385;SDS011;7791;47.246;9.648;2022-07-09T00:53:46;5.03;;;2.10;;
15385;SDS011;7791;47.246;9.648;2022-07-09T00:56:15;2.87;;;1.70;;
15385;SDS011;7791;47.246;9.648;2022-07-09T01:01:45;3.13;;;1.50;;
15385;SDS011;7791;47.246;9.648;2022-07-09T01:04:12;3.77;;;1.93;;
15385;SDS011;7791;47.246;9.648;2022-07-09T01:06:38;3.40;;;1.90;;
15385;SDS011;7791;47.246;9.648;2022-07-09T01:09:04;3.00;;;1.87;;
15385;SDS011;7791;47.246;9.648;2022-07-09T01:11:31;3.07;;;2.00;;
15385;SDS011;7791;47.246;9.648;2022-07-09T01:13:57;6.10;;;2.00;;
15385;SDS011;7791;47.246;9.648;2022-07-09T01:16:29;2.83;;;1.80;;
15385;SDS011;7791;47.246;9.648;2022-07-09T01:18:57;3.10;;;1.63;;
15385;SDS011;7791;47.246;9.648;2022-07-09T01:21:26;5.40;;;2.00;;
15385;SDS011;7791;47.246;9.648;2022-07-09T01:23:51;3.20;;;1.50;;
15385;SDS011;7791;47.246;9.648;2022-07-09T01:26:17;2.60;;;1.80;;
15385;SDS011;7791;47.246;9.648;2022-07-09T01:28:46;2.40;;;1.90;;
15385;SDS011;7791;47.246;9.648;2022-07-09T01:31:12;2.80;;;1.90;;
15385;SDS011;7791;47.246;9.648;2022-07-09T01:33:40;1.80;;;1.67;;
15385;SDS011;7791;47.246;9.648;2022-07-09T01:36:06;2.73;;;1.83;;
15385;SDS011;7791;47.246;9.648;2022-07-09T01:38:36;3.63;;;1.90;;
15385;SDS011;7791;47.246;9.648;2022-07-09T01:41:03;3.63;;;2.10;;
15385;SDS011;7791;47.246;9.648;2022-07-09T01:43:29;3.33;;;1.90;;
15385;SDS011;7791;47.246;9.648;2022-07-09T01:45:55;2.93;;;1.93;;
15385;SDS011;7791;47.246;9.648;2022-07-09T01:48:22;3.40;;;2.00;;
15385;SDS011;7791;47.246;9.648;2022-07-09T01:50:48;3.07;;;2.20;;
15385;SDS011;7791;47.246;9.648;2022-07-09T01:53:14;4.77;;;2.03;;
15385;SDS011;7791;47.246;9.648;2022-07-09T01:55:42;2.23;;;1.97;;
15385;SDS011;7791;47.246;9.648;2022-07-09T01:58:09;3.00;;;2.20;;
15385;SDS011;7791;47.246;9.648;2022-07-09T02:00:35;2.47;;;1.90;;
15385;SDS011;7791;47.246;9.648;2022-07-09T02:03:01;3.60;;;2.10;;
15385;SDS011;7791;47.246;9.648;2022-07-09T02:05:27;3.83;;;1.90;;
15385;SDS011;7791;47.246;9.648;2022-07-09T02:07:54;3.63;;;2.10;;
15385;SDS011;7791;47.246;9.648;2022-07-09T02:10:20;2.17;;;1.83;;
15385;SDS011;7791;47.246;9.648;2022-07-09T02:12:47;1.57;;;1.40;;
15385;SDS011;7791;47.246;9.648;2022-07-09T02:15:26;2.70;;;1.83;;
15385;SDS011;7791;47.246;9.648;2022-07-09T02:17:51;2.60;;;1.70;;
15385;SDS011;7791;47.246;9.648;2022-07-09T02:20:17;3.57;;;2.00;;
15385;SDS011;7791;47.246;9.648;2022-07-09T02:22:43;3.43;;;1.97;;
15385;SDS011;7791;47.246;9.648;2022-07-09T02:25:09;3.67;;;1.83;;
15385;SDS011;7791;47.246;9.648;2022-07-09T02:27:35;2.93;;;1.80;;
15385;SDS011;7791;47.246;9.648;2022-07-09T02:30:08;2.50;;;1.73;;
15385;SDS011;7791;47.246;9.648;2022-07-09T02:32:34;3.20;;;1.90;;
15385;SDS011;7791;47.246;9.648;2022-07-09T02:35:00;4.67;;;1.83;;
15385;SDS011;7791;47.246;9.648;2022-07-09T02:37:26;4.80;;;2.10;;
15385;SDS011;7791;47.246;9.648;2022-07-09T02:39:52;2.37;;;1.83;;
15385;SDS011;7791;47.246;9.648;2022-07-09T02:42:20;3.60;;;1.90;;
15385;SDS011;7791;47.246;9.648;2022-07-09T02:47:50;2.33;;;1.97;;
15385;SDS011;7791;47.246;9.648;2022-07-09T02:50:16;3.47;;;1.93;;
15385;SDS011;7791;47.246;9.648;2022-07-09T02:52:45;2.63;;;1.90;;
15385;SDS011;7791;47.246;9.648;2022-07-09T02:55:12;3.13;;;1.97;;
15385;SDS011;7791;47.246;9.648;2022-07-09T02:57:38;2.57;;;1.97;;
15385;SDS011;7791;47.246;9.648;2022-07-09T03:02:58;3.27;;;1.97;;
15385;SDS011;7791;47.246;9.648;2022-07-09T03:05:25;3.87;;;1.83;;
15385;SDS011;7791;47.246;9.648;2022-07-09T03:07:50;3.97;;;2.07;;
15385;SDS011;7791;47.246;9.648;2022-07-09T03:10:17;3.03;;;2.07;;
15385;SDS011;7791;47.246;9.648;2022-07-09T03:12:43;3.23;;;2.00;;
15385;SDS011;7791;47.246;9.648;2022-07-09T03:15:09;3.57;;;2.20;;
15385;SDS011;7791;47.246;9.648;2022-07-09T03:17:36;4.30;;;2.00;;
15385;SDS011;7791;47.246;9.648;2022-07-09T03:20:03;3.80;;;2.17;;
15385;SDS011;7791;47.246;9.648;2022-07-09T03:22:30;3.03;;;2.57;;
15385;SDS011;7791;47.246;9.648;2022-07-09T03:24:56;2.70;;;2.13;;
15385;SDS011;7791;47.246;9.648;2022-07-09T03:27:23;3.77;;;2.30;;
15385;SDS011;7791;47.246;9.648;2022-07-09T03:29:52;4.27;;;2.63;;
15385;SDS011;7791;47.246;9.648;2022-07-09T03:32:18;4.20;;;2.30;;
15385;SDS011;7791;47.246;9.648;2022-07-09T03:34:44;4.07;;;2.50;;
15385;SDS011;7791;47.246;9.648;2022-07-09T03:37:12;3.37;;;2.00;;
15385;SDS011;7791;47.246;9.648;2022-07-09T03:39:38;4.97;;;2.20;;
15385;SDS011;7791;47.246;9.648;2022-07-09T03:42:04;3.80;;;2.10;;
15385;SDS011;7791;47.246;9.648;2022-07-09T03:44:34;3.93;;;2.13;;
15385;SDS011;7791;47.246;9.648;2022-07-09T03:46:59;3.87;;;2.00;;
15385;SDS011;7791;47.246;9.648;2022-07-09T03:49:26;4.77;;;2.40;;
15385;SDS011;7791;47.246;9.648;2022-07-09T03:51:52;5.00;;;2.10;;
15385;SDS011;7791;47.246;9.648;2022-07-09T03:54:19;2.80;;;2.50;;
15385;SDS011;7791;47.246;9.648;2022-07-09T03:56:45;2.60;;;2.00;;
15385;SDS011;7791;47.246;9.648;2022-07-09T03:59:11;2.87;;;1.90;;
15385;SDS011;7791;47.246;9.648;2022-07-09T04:01:42;3.87;;;2.13;;
15385;SDS011;7791;47.246;9.648;2022-07-09T04:04:09;3.73;;;1.87;;
15385;SDS011;7791;47.246;9.648;2022-07-09T04:06:35;3.00;;;1.80;;
15385;SDS011;7791;47.246;9.648;2022-07-09T04:09:01;3.47;;;2.00;;
15385;SDS011;7791;47.246;9.648;2022-07-09T04:11:29;2.07;;;1.70;;
15385;SDS011;7791;47.246;9.648;2022-07-09T04:13:54;3.10;;;1.87;;
15385;SDS011;7791;47.246;9.648;2022-07-09T04:16:22;3.23;;;1.70;;
15385;SDS011;7791;47.246;9.648;2022-07-09T04:18:47;3.63;;;1.90;;
15385;SDS011;7791;47.246;9.648;2022-07-09T04:21:13;2.57;;;1.70;;
15385;SDS011;7791;47.246;9.648;2022-07-09T04:23:39;2.93;;;1.90;;
15385;SDS011;7791;47.246;9.648;2022-07-09T04:26:05;3.30;;;2.00;;
15385;SDS011;7791;47.246;9.648;2022-07-09T04:28:34;5.63;;;1.90;;
15385;SDS011;7791;47.246;9.648;2022-07-09T04:31:01;2.07;;;1.80;;
15385;SDS011;7791;47.246;9.648;2022-07-09T04:33:26;2.53;;;1.90;;
15385;SDS011;7791;47.246;9.648;2022-07-09T04:35:52;2.33;;;1.80;;
15385;SDS011;7791;47.246;9.648;2022-07-09T04:38:21;2.87;;;1.90;;
15385;SDS011;7791;47.246;9.648;2022-07-09T04:40:51;3.73;;;2.17;;
15385;SDS011;7791;47.246;9.648;2022-07-09T04:43:16;2.93;;;2.07;;
15385;SDS011;7791;47.246;9.648;2022-07-09T04:45:49;3.07;;;2.17;;
15385;SDS011;7791;47.246;9.648;2022-07-09T04:48:14;3.10;;;2.03;;
15385;SDS011;7791;47.246;9.648;2022-07-09T04:50:41;3.63;;;1.90;;
15385;SDS011;7791;47.246;9.648;2022-07-09T04:53:08;3.03;;;2.20;;
15385;SDS011;7791;47.246;9.648;2022-07-09T04:55:34;3.37;;;1.90;;
15385;SDS011;7791;47.246;9.648;2022-07-09T04:58:00;4.50;;;2.13;;
15385;SDS011;7791;47.246;9.648;2022-07-09T05:00:26;4.73;;;2.07;;
15385;SDS011;7791;47.246;9.648;2022-07-09T05:02:53;3.13;;;1.80;;
15385;SDS011;7791;47.246;9.648;2022-07-09T05:05:19;4.17;;;2.00;;
15385;SDS011;7791;47.246;9.648;2022-07-09T05:07:46;4.93;;;2.30;;
15385;SDS011;7791;47.246;9.648;2022-07-09T05:10:12;4.07;;;2.60;;
15385;SDS011;7791;47.246;9.648;2022-07-09T05:12:38;2.57;;;1.90;;
15385;SDS011;7791;47.246;9.648;2022-07-09T05:15:04;3.50;;;1.87;;
15385;SDS011;7791;47.246;9.648;2022-07-09T05:17:33;2.67;;;1.50;;
15385;SDS011;7791;47.246;9.648;2022-07-09T05:20:01;2.07;;;1.33;;
15385;SDS011;7791;47.246;9.648;2022-07-09T05:22:27;3.20;;;1.30;;
15385;SDS011;7791;47.246;9.648;2022-07-09T05:24:53;3.33;;;1.60;;
15385;SDS011;7791;47.246;9.648;2022-07-09T05:27:19;3.53;;;1.77;;
15385;SDS011;7791;47.246;9.648;2022-07-09T05:29:45;2.53;;;1.20;;
15385;SDS011;7791;47.246;9.648;2022-07-09T05:32:11;1.33;;;1.10;;
15385;SDS011;7791;47.246;9.648;2022-07-09T05:34:37;4.60;;;1.40;;
15385;SDS011;7791;47.246;9.648;2022-07-09T05:37:05;3.23;;;1.03;;
15385;SDS011;7791;47.246;9.648;2022-07-09T05:39:31;4.80;;;1.50;;
15385;SDS011;7791;47.246;9.648;2022-07-09T05:41:58;2.80;;;1.03;;
15385;SDS011;7791;47.246;9.648;2022-07-09T05:44:24;1.97;;;1.20;;
15385;SDS011;7791;47.246;9.648;2022-07-09T05:46:50;2.33;;;1.13;;
15385;SDS011;7791;47.246;9.648;2022-07-09T05:49:18;2.57;;;1.00;;
15385;SDS011;7791;47.246;9.648;2022-07-09T05:51:48;2.83;;;1.00;;
15385;SDS011;7791;47.246;9.648;2022-07-09T05:54:19;1.67;;;1.00;;
15385;SDS011;7791;47.246;9.648;2022-07-09T05:56:45;3.10;;;1.20;;
15385;SDS011;7791;47.246;9.648;2022-07-09T05:59:11;3.83;;;1.20;;
15385;SDS011;7791;47.246;9.648;2022-07-09T06:01:37;2.40;;;1.20;;
15385;SDS011;7791;47.246;9.648;2022-07-09T06:04:04;2.40;;;1.13;;
15385;SDS011;7791;47.246;9.648;2022-07-09T06:06:29;1.45;;;1.13;;
15385;SDS011;7791;47.246;9.648;2022-07-09T06:08:55;3.08;;;1.00;;
15385;SDS011;7791;47.246;9.648;2022-07-09T06:11:22;2.15;;;1.00;;
15385;SDS011;7791;47.246;9.648;2022-07-09T06:13:49;2.67;;;1.00;;
15385;SDS011;7791;47.246;9.648;2022-07-09T06:16:14;3.10;;;1.20;;
15385;SDS011;7791;47.246;9.648;2022-07-09T06:18:41;3.95;;;1.15;;
15385;SDS011;7791;47.246;9.648;2022-07-09T06:21:09;2.03;;;0.80;;
15385;SDS011;7791;47.246;9.648;2022-07-09T06:23:35;2.72;;;1.10;;
15385;SDS011;7791;47.246;9.648;2022-07-09T06:26:01;3.30;;;1.20;;
15385;SDS011;7791;47.246;9.648;2022-07-09T06:28:29;4.72;;;1.20;;
15385;SDS011;7791;47.246;9.648;2022-07-09T06:30:54;2.25;;;1.17;;
15385;SDS011;7791;47.246;9.648;2022-07-09T06:33:20;3.03;;;1.00;;
15385;SDS011;7791;47.246;9.648;2022-07-09T06:35:47;8.80;;;1.20;;
15385;SDS011;7791;47.246;9.648;2022-07-09T06:38:13;1.50;;;1.10;;
15385;SDS011;7791;47.246;9.648;2022-07-09T06:40:39;2.30;;;1.20;;
15385;SDS011;7791;47.246;9.648;2022-07-09T06:43:05;3.65;;;1.10;;
15385;SDS011;7791;47.246;9.648;2022-07-09T06:45:35;1.55;;;0.90;;
15385;SDS011;7791;47.246;9.648;2022-07-09T06:48:01;2.58;;;0.90;;
15385;SDS011;7791;47.246;9.648;2022-07-09T06:50:28;1.05;;;0.95;;
15385;SDS011;7791;47.246;9.648;2022-07-09T06:52:54;3.65;;;1.00;;
15385;SDS011;7791;47.246;9.648;2022-07-09T06:55:20;2.17;;;1.20;;
15385;SDS011;7791;47.246;9.648;2022-07-09T06:57:46;2.33;;;1.08;;
15385;SDS011;7791;47.246;9.648;2022-07-09T07:00:13;1.75;;;0.90;;
15385;SDS011;7791;47.246;9.648;2022-07-09T07:02:40;1.50;;;1.08;;
15385;SDS011;7791;47.246;9.648;2022-07-09T07:05:06;1.85;;;1.00;;
15385;SDS011;7791;47.246;9.648;2022-07-09T07:07:34;2.45;;;1.00;;
15385;SDS011;7791;47.246;9.648;2022-07-09T07:10:01;1.27;;;1.10;;
15385;SDS011;7791;47.246;9.648;2022-07-09T07:12:27;4.07;;;1.40;;
15385;SDS011;7791;47.246;9.648;2022-07-09T07:14:53;2.20;;;1.30;;
15385;SDS011;7791;47.246;9.648;2022-07-09T07:17:19;4.85;;;1.48;;
15385;SDS011;7791;47.246;9.648;2022-07-09T07:19:46;1.58;;;1.35;;
15385;SDS011;7791;47.246;9.648;2022-07-09T07:22:12;2.30;;;1.20;;
15385;SDS011;7791;47.246;9.648;2022-07-09T07:24:38;3.35;;;1.20;;
15385;SDS011;7791;47.246;9.648;2022-07-09T07:27:04;2.58;;;1.50;;
15385;SDS011;7791;47.246;9.648;2022-07-09T07:29:31;1.77;;;1.10;;
15385;SDS011;7791;47.246;9.648;2022-07-09T07:31:57;2.40;;;1.20;;
15385;SDS011;7791;47.246;9.648;2022-07-09T07:34:23;2.40;;;1.30;;
15385;SDS011;7791;47.246;9.648;2022-07-09T07:36:51;4.03;;;1.40;;
15385;SDS011;7791;47.246;9.648;2022-07-09T07:39:16;2.10;;;1.10;;
15385;SDS011;7791;47.246;9.648;2022-07-09T07:41:42;2.33;;;1.20;;
15385;SDS011;7791;47.246;9.648;2022-07-09T07:44:08;1.83;;;1.20;;
15385;SDS011;7791;47.246;9.648;2022-07-09T07:46:34;1.65;;;1.25;;
15385;SDS011;7791;47.246;9.648;2022-07-09T07:49:01;2.22;;;1.27;;
15385;SDS011;7791;47.246;9.648;2022-07-09T07:51:27;2.22;;;1.20;;
15385;SDS011;7791;47.246;9.648;2022-07-09T07:53:55;2.03;;;1.40;;
15385;SDS011;7791;47.246;9.648;2022-07-09T07:56:21;2.05;;;1.30;;
15385;SDS011;7791;47.246;9.648;2022-07-09T07:58:48;4.07;;;1.77;;
15385;SDS011;7791;47.246;9.648;2022-07-09T08:01:13;2.85;;;1.35;;
15385;SDS011;7791;47.246;9.648;2022-07-09T08:03:39;2.60;;;1.40;;
15385;SDS011;7791;47.246;9.648;2022-07-09T08:06:05;2.08;;;1.70;;
15385;SDS011;7791;47.246;9.648;2022-07-09T08:08:31;1.52;;;1.10;;
15385;SDS011;7791;47.246;9.648;2022-07-09T08:10:59;4.70;;;1.40;;
15385;SDS011;7791;47.246;9.648;2022-07-09T08:13:26;2.67;;;1.38;;
15385;SDS011;7791;47.246;9.648;2022-07-09T08:15:51;3.63;;;1.42;;
15385;SDS011;7791;47.246;9.648;2022-07-09T08:18:18;2.67;;;1.42;;
15385;SDS011;7791;47.246;9.648;2022-07-09T08:20:44;3.95;;;1.92;;
15385;SDS011;7791;47.246;9.648;2022-07-09T08:23:10;2.38;;;1.60;;
15385;SDS011;7791;47.246;9.648;2022-07-09T08:25:36;4.28;;;1.60;;
15385;SDS011;7791;47.246;9.648;2022-07-09T08:28:04;3.70;;;1.67;;
15385;SDS011;7791;47.246;9.648;2022-07-09T08:30:30;3.97;;;1.75;;
15385;SDS011;7791;47.246;9.648;2022-07-09T08:32:56;2.28;;;1.58;;
15385;SDS011;7791;47.246;9.648;2022-07-09T08:35:22;2.63;;;1.65;;
15385;SDS011;7791;47.246;9.648;2022-07-09T08:37:48;2.83;;;1.50;;
15385;SDS011;7791;47.246;9.648;2022-07-09T08:40:13;5.43;;;1.85;;
15385;SDS011;7791;47.246;9.648;2022-07-09T08:42:39;3.10;;;1.70;;
15385;SDS011;7791;47.246;9.648;2022-07-09T08:45:10;2.28;;;1.70;;
15385;SDS011;7791;47.246;9.648;2022-07-09T08:47:37;2.75;;;1.52;;
15385;SDS011;7791;47.246;9.648;2022-07-09T08:50:05;2.53;;;1.70;;
15385;SDS011;7791;47.246;9.648;2022-07-09T08:52:32;3.70;;;1.60;;
15385;SDS011;7791;47.246;9.648;2022-07-09T08:55:00;3.55;;;1.80;;
15385;SDS011;7791;47.246;9.648;2022-07-09T08:57:26;3.72;;;1.60;;
15385;SDS011;7791;47.246;9.648;2022-07-09T08:59:53;4.97;;;1.98;;
15385;SDS011;7791;47.246;9.648;2022-07-09T09:02:20;6.28;;;1.95;;
15385;SDS011;7791;47.246;9.648;2022-07-09T09:04:46;3.53;;;2.00;;
15385;SDS011;7791;47.246;9.648;2022-07-09T09:07:13;2.55;;;1.60;;
15385;SDS011;7791;47.246;9.648;2022-07-09T09:09:41;5.53;;;1.75;;
15385;SDS011;7791;47.246;9.648;2022-07-09T09:12:07;7.28;;;1.75;;
15385;SDS011;7791;47.246;9.648;2022-07-09T09:14:33;4.10;;;1.70;;
15385;SDS011;7791;47.246;9.648;2022-07-09T09:17:03;9.27;;;1.63;;
15385;SDS011;7791;47.246;9.648;2022-07-09T09:19:31;4.07;;;2.15;;
15385;SDS011;7791;47.246;9.648;2022-07-09T09:21:57;5.10;;;2.13;;
15385;SDS011;7791;47.246;9.648;2022-07-09T09:24:24;5.18;;;1.70;;
15385;SDS011;7791;47.246;9.648;2022-07-09T09:26:52;3.58;;;1.52;;
15385;SDS011;7791;47.246;9.648;2022-07-09T09:29:22;2.60;;;1.38;;
15385;SDS011;7791;47.246;9.648;2022-07-09T09:31:48;3.20;;;1.50;;
15385;SDS011;7791;47.246;9.648;2022-07-09T09:34:14;6.35;;;1.85;;
15385;SDS011;7791;47.246;9.648;2022-07-09T09:36:43;3.53;;;1.65;;
15385;SDS011;7791;47.246;9.648;2022-07-09T09:39:10;3.08;;;1.40;;
15385;SDS011;7791;47.246;9.648;2022-07-09T09:41:37;3.75;;;1.38;;
15385;SDS011;7791;47.246;9.648;2022-07-09T09:44:04;2.85;;;1.40;;
15385;SDS011;7791;47.246;9.648;2022-07-09T09:46:32;4.60;;;1.60;;
15385;SDS011;7791;47.246;9.648;2022-07-09T09:48:59;3.17;;;1.40;;
15385;SDS011;7791;47.246;9.648;2022-07-09T09:51:25;2.42;;;1.48;;
15385;SDS011;7791;47.246;9.648;2022-07-09T09:53:56;3.25;;;1.33;;
15385;SDS011;7791;47.246;9.648;2022-07-09T09:56:25;5.78;;;1.63;;
15385;SDS011;7791;47.246;9.648;2022-07-09T09:58:51;4.15;;;1.58;;
15385;SDS011;7791;47.246;9.648;2022-07-09T10:01:18;5.30;;;1.67;;
15385;SDS011;7791;47.246;9.648;2022-07-09T10:03:44;5.28;;;1.40;;
15385;SDS011;7791;47.246;9.648;2022-07-09T10:06:12;3.95;;;1.73;;
15385;SDS011;7791;47.246;9.648;2022-07-09T10:08:38;4.53;;;1.50;;
15385;SDS011;7791;47.246;9.648;2022-07-09T10:11:05;5.93;;;1.50;;
15385;SDS011;7791;47.246;9.648;2022-07-09T10:13:32;4.55;;;1.50;;
15385;SDS011;7791;47.246;9.648;2022-07-09T10:15:58;4.30;;;1.85;;
15385;SDS011;7791;47.246;9.648;2022-07-09T10:18:25;4.10;;;1.70;;
15385;SDS011;7791;47.246;9.648;2022-07-09T10:20:54;3.60;;;1.73;;
15385;SDS011;7791;47.246;9.648;2022-07-09T10:23:20;3.50;;;1.67;;
15385;SDS011;7791;47.246;9.648;2022-07-09T10:25:47;2.67;;;1.60;;
15385;SDS011;7791;47.246;9.648;2022-07-09T10:28:19;2.72;;;1.60;;
15385;SDS011;7791;47.246;9.648;2022-07-09T10:30:46;2.90;;;1.60;;
15385;SDS011;7791;47.246;9.648;2022-07-09T10:33:12;2.28;;;1.40;;
15385;SDS011;7791;47.246;9.648;2022-07-09T10:35:47;4.25;;;1.58;;
15385;SDS011;7791;47.246;9.648;2022-07-09T10:38:14;3.92;;;2.20;;
15385;SDS011;7791;47.246;9.648;2022-07-09T10:40:42;4.03;;;1.67;;
15385;SDS011;7791;47.246;9.648;2022-07-09T10:43:09;4.88;;;1.50;;
15385;SDS011;7791;47.246;9.648;2022-07-09T10:45:37;4.82;;;1.83;;
15385;SDS011;7791;47.246;9.648;2022-07-09T10:48:05;4.60;;;1.73;;
15385;SDS011;7791;47.246;9.648;2022-07-09T10:50:32;2.05;;;1.50;;
15385;SDS011;7791;47.246;9.648;2022-07-09T10:53:02;3.13;;;1.65;;
15385;SDS011;7791;47.246;9.648;2022-07-09T10:55:29;5.80;;;1.50;;
15385;SDS011;7791;47.246;9.648;2022-07-09T10:57:57;1.98;;;1.50;;
15385;SDS011;7791;47.246;9.648;2022-07-09T11:00:24;5.20;;;1.58;;
15385;SDS011;7791;47.246;9.648;2022-07-09T11:02:56;4.00;;;1.55;;
15385;SDS011;7791;47.246;9.648;2022-07-09T11:05:23;3.88;;;1.80;;
15385;SDS011;7791;47.246;9.648;2022-07-09T11:08:00;2.83;;;1.50;;
15385;SDS011;7791;47.246;9.648;2022-07-09T11:10:28;3.95;;;1.52;;
15385;SDS011;7791;47.246;9.648;2022-07-09T11:12:54;7.72;;;1.67;;
15385;SDS011;7791;47.246;9.648;2022-07-09T11:15:21;3.90;;;1.58;;
15385;SDS011;7791;47.246;9.648;2022-07-09T11:17:55;4.07;;;1.30;;
15385;SDS011;7791;47.246;9.648;2022-07-09T11:20:22;3.67;;;1.50;;
15385;SDS011;7791;47.246;9.648;2022-07-09T11:22:48;2.17;;;1.30;;
15385;SDS011;7791;47.246;9.648;2022-07-09T11:25:15;4.47;;;1.38;;
15385;SDS011;7791;47.246;9.648;2022-07-09T11:27:42;4.43;;;1.20;;
15385;SDS011;7791;47.246;9.648;2022-07-09T11:30:11;3.53;;;1.08;;
15385;SDS011;7791;47.246;9.648;2022-07-09T11:32:38;6.05;;;1.42;;
15385;SDS011;7791;47.246;9.648;2022-07-09T11:35:06;2.55;;;1.30;;
15385;SDS011;7791;47.246;9.648;2022-07-09T11:37:32;7.20;;;1.30;;
15385;SDS011;7791;47.246;9.648;2022-07-09T11:39:58;2.60;;;1.15;;
15385;SDS011;7791;47.246;9.648;2022-07-09T11:42:24;1.60;;;1.02;;
15385;SDS011;7791;47.246;9.648;2022-07-09T13:17:09;1.70;;;0.93;;
15385;SDS011;7791;47.246;9.648;2022-07-09T13:19:35;2.10;;;0.80;;
15385;SDS011;7791;47.246;9.648;2022-07-09T13:22:00;3.05;;;1.00;;
15385;SDS011;7791;47.246;9.648;2022-07-09T13:24:26;2.38;;;1.17;;
15385;SDS011;7791;47.246;9.648;2022-07-09T13:26:52;1.38;;;0.90;;
15385;SDS011;7791;47.246;9.648;2022-07-09T13:29:18;3.63;;;1.10;;
15385;SDS011;7791;47.246;9.648;2022-07-09T13:31:43;1.90;;;0.90;;
15385;SDS011;7791;47.246;9.648;2022-07-09T13:34:10;6.10;;;1.30;;
15385;SDS011;7791;47.246;9.648;2022-07-09T13:36:36;1.88;;;0.90;;
15385;SDS011;7791;47.246;9.648;2022-07-09T13:39:02;2.33;;;1.30;;
15385;SDS011;7791;47.246;9.648;2022-07-09T13:41:28;1.90;;;1.20;;
15385;SDS011;7791;47.246;9.648;2022-07-09T13:43:53;3.67;;;1.20;;
15385;SDS011;7791;47.246;9.648;2022-07-09T13:46:19;3.70;;;1.15;;
15385;SDS011;7791;47.246;9.648;2022-07-09T13:48:45;2.58;;;1.13;;
15385;SDS011;7791;47.246;9.648;2022-07-09T13:51:12;2.50;;;1.00;;
15385;SDS011;7791;47.246;9.648;2022-07-09T13:53:38;2.92;;;1.10;;
15385;SDS011;7791;47.246;9.648;2022-07-09T13:56:04;3.38;;;1.05;;
15385;SDS011;7791;47.246;9.648;2022-07-09T13:58:30;2.28;;;1.05;;
15385;SDS011;7791;47.246;9.648;2022-07-09T14:00:56;2.95;;;1.10;;
15385;SDS011;7791;47.246;9.648;2022-07-09T14:03:21;2.28;;;1.00;;
15385;SDS011;7791;47.246;9.648;2022-07-09T14:05:47;1.55;;;1.00;;
15385;SDS011;7791;47.246;9.648;2022-07-09T14:08:14;3.20;;;1.20;;
15385;SDS011;7791;47.246;9.648;2022-07-09T14:10:40;2.47;;;1.20;;
15385;SDS011;7791;47.246;9.648;2022-07-09T14:13:06;2.15;;;1.17;;
15385;SDS011;7791;47.246;9.648;2022-07-09T14:15:31;5.68;;;1.30;;
15385;SDS011;7791;47.246;9.648;2022-07-09T14:17:57;2.72;;;1.30;;
15385;SDS011;7791;47.246;9.648;2022-07-09T14:20:23;1.80;;;1.15;;
15385;SDS011;7791;47.246;9.648;2022-07-09T14:22:48;5.15;;;1.10;;
15385;SDS011;7791;47.246;9.648;2022-07-09T14:25:16;1.60;;;1.30;;
15385;SDS011;7791;47.246;9.648;2022-07-09T14:27:41;2.17;;;0.95;;
15385;SDS011;7791;47.246;9.648;2022-07-09T14:30:07;2.38;;;1.05;;
15385;SDS011;7791;47.246;9.648;2022-07-09T14:32:34;2.33;;;1.00;;
15385;SDS011;7791;47.246;9.648;2022-07-09T14:34:59;4.22;;;1.42;;
15385;SDS011;7791;47.246;9.648;2022-07-09T14:37:25;2.40;;;1.10;;
15385;SDS011;7791;47.246;9.648;2022-07-09T14:39:51;1.73;;;1.00;;
15385;SDS011;7791;47.246;9.648;2022-07-09T14:42:18;2.38;;;1.23;;
15385;SDS011;7791;47.246;9.648;2022-07-09T14:44:49;2.22;;;1.00;;
15385;SDS011;7791;47.246;9.648;2022-07-09T14:47:15;1.67;;;1.27;;
15385;SDS011;7791;47.246;9.648;2022-07-09T14:49:40;1.75;;;1.17;;
15385;SDS011;7791;47.246;9.648;2022-07-09T14:52:12;2.00;;;1.00;;
15385;SDS011;7791;47.246;9.648;2022-07-09T14:54:38;5.35;;;1.23;;
15385;SDS011;7791;47.246;9.648;2022-07-09T14:57:04;5.13;;;1.40;;
15385;SDS011;7791;47.246;9.648;2022-07-09T14:59:31;1.75;;;1.17;;
15385;SDS011;7791;47.246;9.648;2022-07-09T15:01:57;2.58;;;1.15;;
15385;SDS011;7791;47.246;9.648;2022-07-09T15:04:22;1.45;;;1.20;;
15385;SDS011;7791;47.246;9.648;2022-07-09T15:06:48;4.95;;;1.15;;
15385;SDS011;7791;47.246;9.648;2022-07-09T15:09:14;2.30;;;1.20;;
15385;SDS011;7791;47.246;9.648;2022-07-09T15:11:39;2.92;;;1.20;;
15385;SDS011;7791;47.246;9.648;2022-07-09T15:14:05;1.95;;;1.10;;
15385;SDS011;7791;47.246;9.648;2022-07-09T15:16:38;2.35;;;1.20;;
15385;SDS011;7791;47.246;9.648;2022-07-09T15:19:04;1.65;;;1.20;;
15385;SDS011;7791;47.246;9.648;2022-07-09T15:21:29;2.33;;;1.02;;
15385;SDS011;7791;47.246;9.648;2022-07-09T15:23:55;1.55;;;0.98;;
15385;SDS011;7791;47.246;9.648;2022-07-09T15:26:21;4.53;;;1.30;;
15385;SDS011;7791;47.246;9.648;2022-07-09T15:28:47;2.35;;;1.10;;
15385;SDS011;7791;47.246;9.648;2022-07-09T15:31:19;2.47;;;1.10;;
15385;SDS011;7791;47.246;9.648;2022-07-09T15:33:46;2.75;;;0.98;;
15385;SDS011;7791;47.246;9.648;2022-07-09T15:36:12;2.70;;;1.20;;
15385;SDS011;7791;47.246;9.648;2022-07-09T15:38:38;2.80;;;1.05;;
15385;SDS011;7791;47.246;9.648;2022-07-09T15:41:04;2.45;;;1.40;;
15385;SDS011;7791;47.246;9.648;2022-07-09T15:43:30;2.35;;;1.10;;
15385;SDS011;7791;47.246;9.648;2022-07-09T15:45:55;3.83;;;1.20;;
15385;SDS011;7791;47.246;9.648;2022-07-09T15:48:21;1.30;;;1.10;;
15385;SDS011;7791;47.246;9.648;2022-07-09T15:50:48;2.75;;;1.10;;
15385;SDS011;7791;47.246;9.648;2022-07-09T15:53:14;2.58;;;1.20;;
15385;SDS011;7791;47.246;9.648;2022-07-09T15:55:40;4.78;;;1.40;;
15385;SDS011;7791;47.246;9.648;2022-07-09T15:58:05;1.70;;;1.10;;
15385;SDS011;7791;47.246;9.648;2022-07-09T16:00:31;2.17;;;1.45;;
15385;SDS011;7791;47.246;9.648;2022-07-09T16:02:57;1.85;;;1.02;;
15385;SDS011;7791;47.246;9.648;2022-07-09T16:05:23;3.15;;;1.02;;
15385;SDS011;7791;47.246;9.648;2022-07-09T16:07:50;2.55;;;0.98;;
15385;SDS011;7791;47.246;9.648;2022-07-09T16:10:15;3.15;;;1.25;;
15385;SDS011;7791;47.246;9.648;2022-07-09T16:12:41;2.55;;;1.25;;
15385;SDS011;7791;47.246;9.648;2022-07-09T16:15:07;4.07;;;1.10;;
15385;SDS011;7791;47.246;9.648;2022-07-09T16:17:33;3.30;;;1.10;;
15385;SDS011;7791;47.246;9.648;2022-07-09T16:19:59;2.60;;;1.08;;
15385;SDS011;7791;47.246;9.648;2022-07-09T16:22:24;2.53;;;1.08;;
15385;SDS011;7791;47.246;9.648;2022-07-09T16:24:51;3.58;;;1.08;;
15385;SDS011;7791;47.246;9.648;2022-07-09T16:27:17;2.45;;;1.13;;
15385;SDS011;7791;47.246;9.648;2022-07-09T16:29:43;6.28;;;1.38;;
15385;SDS011;7791;47.246;9.648;2022-07-09T16:32:15;1.40;;;1.10;;
15385;SDS011;7791;47.246;9.648;2022-07-09T16:34:40;2.17;;;1.10;;
15385;SDS011;7791;47.246;9.648;2022-07-09T16:37:06;1.08;;;0.82;;
15385;SDS011;7791;47.246;9.648;2022-07-09T16:39:32;2.63;;;1.05;;